Sunday, May 27, 2018, 5:53 PM GMT
Back to Local

CYWA, Petawawa, Ont.

Location: , , Canada Lat: 45.95
Local Time: 5:53 PM GMT (17:53 GMT) Lon: -77.317
Time Zone: GMT Elev: 426 ft

Show me the last for .
Show Decoded

2018-05-27 17:00 METAR CYWA 271700Z AUTO 13009KT 9SM FEW069 FEW086 SCT093 20/12 A2994 RMK SLP141
                 =
2018-05-27 16:00 METAR CYWA 271600Z AUTO 14008KT 9SM FEW078 FEW084 FEW092 19/11 A2995 RMK SLP145
                 =
2018-05-27 15:00 METAR CYWA 271500Z AUTO 13009KT 9SM CLR 18/09 A2996 RMK PCPN 0.5MM PAST HR
                 SLP149 =
2018-05-27 14:00 METAR CYWA 271400Z AUTO 13011KT 9SM FEW082 FEW094 17/08 A2997 RMK PCPN 0.5MM
                 PAST HR SLP151 =
2018-05-27 13:00 METAR CYWA 271300Z AUTO 12005KT 100V160 9SM FEW083 17/10 A2998 RMK SLP154 =
2018-05-27 12:00 METAR CYWA 271200Z AUTO 10003KT 9SM OVC071 14/12 A2997 RMK SLP152 =
2018-05-27 11:00 METAR CYWA 271100Z AUTO 00000KT 9SM OVC065 OVC076 15/12 A2997 RMK SLP151 =
2018-05-27 10:00 METAR CYWA 271000Z AUTO 00000KT 9SM FEW067 SCT074 13/12 A2996 RMK SLP147 =
2018-05-27 09:00 METAR CYWA 270900Z AUTO 12004KT 9SM FEW072 14/11 A2994 RMK SLP141 =
2018-05-27 08:00 METAR CYWA 270800Z AUTO 14003KT 110V170 9SM FEW097 16/11 A2994 RMK SLP141 =
2018-05-27 07:00 METAR CYWA 270700Z AUTO 13005KT 9SM FEW042 FEW059 OVC092 16/13 A2994 RMK SLP139
                 =
2018-05-27 06:43 METAR CYWA 270643Z AUTO 13006KT 100V160 9SM BKN057 16/13 A2993 =
2018-05-27 06:28 METAR CYWA 270628Z AUTO 14003KT 100V160 9SM -RA FEW036 BKN050 16/14 A2993 =
2018-05-27 06:08 METAR CYWA 270608Z AUTO 13005KT 9SM BKN028 16/14 A2992 =
2018-05-27 06:00 METAR CYWA 270600Z AUTO 14004KT 9SM -RA BKN026 16/15 A2992 RMK PCPN 1.0MM PAST
                 HR SLP135 =
2018-05-27 05:00 METAR CYWA 270500Z AUTO 07003KT 6SM RA OVC032 17/15 A2993 RMK PCPN 0.5MM PAST HR
                 SLP138 =
2018-05-27 04:33 METAR CYWA 270433Z AUTO 12004KT 110V170 9SM RA OVC032 OVC058 OVC096 18/14 A2993
                 =
2018-05-27 04:00 METAR CYWA 270400Z AUTO 13003KT 9SM BKN038 OVC079 18/12 A2992 RMK SLP134 =
2018-05-27 03:00 METAR CYWA 270300Z AUTO 12002KT 9SM BKN038 BKN055 OVC079 17/15 A2991 RMK SLP131
                 =
2018-05-27 02:00 METAR CYWA 270200Z AUTO 00000KT 9SM FEW040 FEW052 OVC084 17/13 A2991 RMK SLP132
                 =
2018-05-27 01:00 METAR CYWA 270100Z AUTO 00000KT 9SM BKN088 18/13 A2990 RMK SLP126 =
2018-05-27 00:00 METAR CYWA 270000Z AUTO 12003KT 9SM FEW061 SCT088 OVC096 20/13 A2987 RMK SLP119
                 =
2018-05-26 23:00 METAR CYWA 262300Z AUTO 00000KT 9SM FEW055 20/15 A2987 RMK SLP115 =
2018-05-26 22:00 METAR CYWA 262200Z AUTO 04005KT 9SM SCT059 20/15 A2985 RMK SLP110 =
2018-05-26 21:20 METAR CYWA 262120Z AUTO 03005KT 9SM FEW059 21/15 A2985 =
2018-05-26 21:03 METAR CYWA 262103Z AUTO 02004KT 9SM -RA FEW059 FEW093 21/15 A2985 =
2018-05-26 21:00 METAR CYWA 262100Z AUTO 02003KT 010V080 9SM FEW059 FEW093 21/15 A2985 RMK SLP111
                 =
2018-05-26 20:00 METAR CYWA 262000Z AUTO 04003KT 340V050 9SM BKN059 OVC093 22/16 A2985 RMK SLP111
                 =
2018-05-26 19:00 METAR CYWA 261900Z AUTO 04004KT 360V070 9SM SCT059 22/15 A2985 RMK SLP111 =
2018-05-26 18:00 METAR CYWA 261800Z AUTO 00000KT 9SM FEW095 21/15 A2983 RMK SLP102 =

Support USWX by starting your Amazon purchase here.